Time;durP1;ratioP1;P1;durP2;ratioP2;P2;SDS_P1;SDS_P2;PMS_P1;PMS_P2;Temp;Humidity;BMP_temperature;BMP_pressure;BME280_temperature;BME280_humidity;BME280_pressure;Samples;Min_cycle;Max_cycle;Signal;HPM_P1;HPM_P2
2023/09/06 01:11:38;;;;;;;;;;;;;;;;;;;;;
2023/09/06 01:14:50;;;;;;;10.73;9.83;;;20.10;23.50;;;;;;4932661;29;20461;-77
2023/09/06 01:20:57;;;;;;;9.60;9.00;;;20.10;23.80;;;;;;4926959;29;20432;-78
2023/09/06 01:33:40;;;;;;;9.57;8.87;;;19.90;24.40;;;;;;4895616;29;20962;-77
2023/09/06 01:37:02;;;;;;;9.73;9.00;;;19.80;24.60;;;;;;4939041;29;20436;-75
2023/09/06 01:43:42;;;;;;;10.70;9.90;;;19.80;24.70;;;;;;4914276;29;20443;-76
2023/09/06 01:46:51;;;;;;;;;;;;;;;;;;;;;
2023/09/06 01:49:57;;;;;;;10.60;9.80;;;19.80;24.70;;;;;;4895458;29;20485;-77
2023/09/06 01:56:47;;;;;;;11.00;10.30;;;19.80;24.60;;;;;;4855216;29;20442;-77
2023/09/06 01:59:21;;;;;;;10.43;9.67;;;19.80;24.90;;;;;;4894923;29;20619;-78
2023/09/06 02:02:07;;;;;;;10.87;10.17;;;19.80;24.90;;;;;;4923543;29;20440;-78
2023/09/06 08:12:13;;;;;;;13.23;12.40;;;20.00;21.70;;;;;;5070719;23;20514;-75
2023/09/06 08:14:39;;;;;;;14.93;13.63;;;20.10;21.80;;;;;;4935697;29;20467;-75
2023/09/06 08:17:05;;;;;;;13.07;12.37;;;20.10;22.00;;;;;;4935731;29;20191;-75
2023/09/06 08:19:30;;;;;;;13.33;12.37;;;20.20;21.90;;;;;;4935878;29;20191;-75
2023/09/06 08:21:56;;;;;;;13.00;12.00;;;20.20;21.90;;;;;;4943432;29;20432;-75
2023/09/06 08:24:21;;;;;;;13.43;12.40;;;20.30;21.90;;;;;;4937324;29;20294;-76
2023/09/06 08:26:50;;;;;;;12.70;11.90;;;20.40;22.00;;;;;;4935693;29;20242;-75
2023/09/06 08:29:16;;;;;;;13.07;12.17;;;20.40;22.00;;;;;;4925290;29;20242;-75
2023/09/06 08:31:41;;;;;;;13.70;13.00;;;20.50;22.00;;;;;;4942048;29;20447;-75
2023/09/06 08:34:07;;;;;;;13.73;12.93;;;20.60;21.80;;;;;;4928360;29;20208;-75
2023/09/06 08:36:33;;;;;;;12.90;12.20;;;20.50;22.00;;;;;;4939706;29;20193;-76
2023/09/06 08:38:59;;;;;;;13.73;12.83;;;20.60;22.10;;;;;;4926811;29;20432;-75
2023/09/06 08:41:26;;;;;;;13.90;13.00;;;20.60;22.10;;;;;;4934946;29;20250;-77
2023/09/06 08:43:52;;;;;;;13.57;12.53;;;20.70;21.60;;;;;;4932063;29;20215;-78
2023/09/06 08:46:22;;;;;;;13.63;12.63;;;20.90;21.50;;;;;;4934994;29;20829;-76
2023/09/06 08:48:49;;;;;;;13.70;13.00;;;21.00;21.20;;;;;;4936492;29;20547;-76
2023/09/06 08:51:16;;;;;;;12.80;12.07;;;20.90;21.20;;;;;;4949904;29;20904;-75
2023/09/06 08:53:43;;;;;;;13.97;13.10;;;21.00;20.60;;;;;;4935603;29;20454;-74
2023/09/06 08:56:10;;;;;;;13.20;12.40;;;21.00;21.00;;;;;;4934505;29;20795;-75
2023/09/06 08:58:36;;;;;;;14.80;13.90;;;21.10;20.40;;;;;;4936441;29;20431;-76
2023/09/06 09:01:04;;;;;;;13.83;12.83;;;21.20;20.60;;;;;;4938660;29;20431;-75
2023/09/06 09:03:31;;;;;;;14.10;13.07;;;21.30;20.30;;;;;;4932722;29;20815;-76
2023/09/06 09:06:01;;;;;;;13.13;12.43;;;21.30;20.40;;;;;;4936528;29;20442;-75
2023/09/06 09:08:30;;;;;;;13.10;12.33;;;21.40;20.20;;;;;;4935433;29;20434;-76
2023/09/06 09:11:16;;;;;;;14.47;13.73;;;21.50;21.00;;;;;;4948818;29;20444;-75
2023/09/06 09:13:42;;;;;;;14.50;13.60;;;21.70;19.60;;;;;;4929699;29;20451;-76
2023/09/06 09:16:09;;;;;;;12.90;12.10;;;21.90;19.30;;;;;;4942506;29;20443;-76
2023/09/06 09:18:37;;;;;;;13.10;12.30;;;22.20;19.40;;;;;;4935810;29;20419;-76
2023/09/06 09:21:03;;;;;;;12.93;12.23;;;22.40;18.50;;;;;;4930132;29;20452;-76
2023/09/06 09:23:30;;;;;;;13.93;12.63;;;22.60;18.50;;;;;;4934953;29;20458;-76
2023/09/06 09:25:56;;;;;;;12.60;11.90;;;22.80;18.30;;;;;;4940625;29;20471;-76
2023/09/06 09:28:22;;;;;;;12.00;11.30;;;23.10;17.40;;;;;;4941303;29;20464;-77
2023/09/06 09:30:48;;;;;;;12.20;11.50;;;23.30;16.90;;;;;;4942977;29;20208;-76
2023/09/06 09:33:14;;;;;;;12.93;11.93;;;23.50;16.30;;;;;;4935749;29;20586;-76
2023/09/06 09:35:40;;;;;;;12.80;12.00;;;23.70;15.60;;;;;;4935254;29;20461;-76
2023/09/06 09:38:10;;;;;;;12.33;11.73;;;23.80;15.60;;;;;;4934810;29;20180;-76
2023/09/06 09:40:37;;;;;;;12.00;11.40;;;24.00;15.40;;;;;;4934424;29;20541;-75
2023/09/06 09:43:04;;;;;;;12.93;11.77;;;24.00;14.70;;;;;;4925825;29;20439;-76
2023/09/06 09:45:43;;;;;;;11.70;11.10;;;24.10;14.90;;;;;;4949208;29;20959;-76
2023/09/06 09:48:09;;;;;;;13.07;12.10;;;24.20;14.60;;;;;;4927943;29;20473;-76
2023/09/06 09:50:36;;;;;;;11.67;10.87;;;24.30;14.70;;;;;;4931287;29;20463;-76
2023/09/06 09:53:05;;;;;;;12.30;11.67;;;24.30;14.80;;;;;;4932979;29;20424;-76
2023/09/06 09:55:34;;;;;;;12.87;12.07;;;24.30;14.70;;;;;;4935857;29;20446;-75
2023/09/06 09:58:07;;;;;;;13.83;12.93;;;24.40;14.50;;;;;;4937989;29;20423;-77
2023/09/06 10:00:33;;;;;;;13.10;12.20;;;24.40;14.10;;;;;;4937866;29;20431;-76
2023/09/06 10:03:00;;;;;;;12.87;11.60;;;24.50;14.30;;;;;;4933371;29;20796;-76
2023/09/06 10:05:27;;;;;;;12.90;12.20;;;24.60;14.70;;;;;;4933276;29;20435;-76
2023/09/06 10:07:56;;;;;;;12.13;11.50;;;24.60;14.90;;;;;;4938412;29;20432;-76
2023/09/06 10:10:24;;;;;;;12.97;11.90;;;24.60;14.00;;;;;;4938213;29;20495;-76
2023/09/06 10:12:56;;;;;;;12.50;11.80;;;24.60;14.70;;;;;;4933790;29;20432;-77
2023/09/06 10:15:24;;;;;;;11.73;11.17;;;24.60;14.80;;;;;;4937161;29;20482;-76
2023/09/06 10:17:52;;;;;;;12.60;11.80;;;24.70;14.90;;;;;;4938028;29;20478;-75
2023/09/06 10:20:23;;;;;;;13.80;12.97;;;24.80;14.60;;;;;;4937283;29;20800;-74
2023/09/06 10:22:50;;;;;;;12.17;11.47;;;24.80;14.40;;;;;;4938248;29;20428;-76
2023/09/06 10:25:16;;;;;;;12.53;11.80;;;24.80;14.10;;;;;;4937625;29;20539;-75
2023/09/06 10:27:46;;;;;;;12.03;11.27;;;24.70;14.40;;;;;;4952399;29;20424;-76
2023/09/06 10:30:17;;;;;;;13.13;12.33;;;24.70;14.70;;;;;;4929955;29;20987;-76
2023/09/06 10:32:46;;;;;;;13.37;12.57;;;24.60;14.90;;;;;;4936685;29;20511;-76
2023/09/06 10:35:27;;;;;;;12.50;11.60;;;24.70;15.10;;;;;;4937911;29;20455;-75
2023/09/06 10:38:10;;;;;;;11.93;11.23;;;24.80;14.80;;;;;;4952929;29;20791;-76
2023/09/06 10:40:51;;;;;;;13.10;12.17;;;24.90;15.20;;;;;;4950064;29;20524;-76
2023/09/06 10:43:18;;;;;;;12.17;11.53;;;24.90;15.00;;;;;;4935606;29;20455;-76
2023/09/06 10:46:18;;;;;;;13.13;12.37;;;24.90;14.90;;;;;;4952967;29;20919;-76
2023/09/06 10:49:17;;;;;;;12.40;11.70;;;25.10;15.00;;;;;;4951447;29;20424;-76
2023/09/06 10:52:08;;;;;;;12.07;11.43;;;25.10;14.90;;;;;;4936186;29;20419;-76
2023/09/06 10:54:39;;;;;;;11.93;11.00;;;25.20;14.90;;;;;;4935954;29;20439;-76
2023/09/06 10:57:06;;;;;;;11.83;11.23;;;25.10;14.60;;;;;;4938126;29;20414;-74
2023/09/06 10:59:41;;;;;;;13.50;12.70;;;25.20;15.00;;;;;;4937581;29;20412;-76
2023/09/06 11:02:18;;;;;;;14.30;13.47;;;25.30;14.60;;;;;;4936463;29;20590;-76
2023/09/06 11:04:44;;;;;;;12.60;11.90;;;25.10;14.60;;;;;;4937802;29;20431;-76
2023/09/06 11:07:10;;;;;;;12.30;11.70;;;25.10;14.70;;;;;;4937007;29;20479;-75
2023/09/06 11:09:49;;;;;;;13.77;12.97;;;25.10;14.60;;;;;;4938473;29;20203;-75
2023/09/06 11:12:14;;;;;;;12.47;11.87;;;25.30;14.10;;;;;;4936219;29;20444;-77
2023/09/06 11:14:41;;;;;;;12.33;11.57;;;25.20;14.50;;;;;;4951484;29;20469;-76
2023/09/06 11:17:07;;;;;;;13.03;12.33;;;25.20;14.80;;;;;;4939244;29;20180;-76
2023/09/06 11:19:36;;;;;;;11.70;11.00;;;25.20;14.70;;;;;;4935934;29;20442;-76
2023/09/06 11:22:07;;;;;;;13.20;12.27;;;25.10;14.80;;;;;;4919376;29;20177;-77
2023/09/06 11:24:35;;;;;;;13.40;12.60;;;25.20;14.70;;;;;;4919228;29;20606;-76
2023/09/06 11:27:03;;;;;;;13.37;12.67;;;25.20;15.00;;;;;;4936337;29;20420;-76
2023/09/06 11:29:30;;;;;;;13.07;12.00;;;25.30;14.90;;;;;;4936415;29;20850;-75
2023/09/06 11:32:08;;;;;;;12.33;11.73;;;25.30;14.60;;;;;;4938776;29;20475;-75
2023/09/06 11:34:41;;;;;;;11.43;10.60;;;25.30;14.30;;;;;;4937341;29;20444;-75
2023/09/06 11:37:10;;;;;;;13.27;12.50;;;25.30;14.60;;;;;;4938593;29;20916;-76
2023/09/06 11:39:39;;;;;;;14.20;13.20;;;25.30;14.80;;;;;;4937749;29;20531;-77
2023/09/06 11:42:08;;;;;;;12.50;11.90;;;25.20;15.20;;;;;;4937670;29;20426;-76
2023/09/06 11:44:37;;;;;;;12.13;11.33;;;25.10;14.80;;;;;;4936911;29;20476;-76
2023/09/06 11:47:06;;;;;;;11.80;11.10;;;25.20;14.80;;;;;;4939123;29;20435;-75
2023/09/06 11:49:37;;;;;;;12.93;12.20;;;25.30;14.90;;;;;;4937471;29;20510;-76
2023/09/06 11:52:05;;;;;;;12.27;11.67;;;25.30;14.30;;;;;;4940279;29;20418;-76
2023/09/06 11:54:32;;;;;;;11.50;10.90;;;25.20;14.50;;;;;;4940610;29;20948;-77
2023/09/06 11:56:58;;;;;;;13.20;11.87;;;25.20;14.40;;;;;;4939904;29;21066;-76
2023/09/06 11:59:28;;;;;;;12.33;11.63;;;25.20;14.50;;;;;;4940130;29;20455;-76
2023/09/06 12:02:03;;;;;;;11.17;10.50;;;25.20;14.80;;;;;;4940940;29;20501;-76
2023/09/06 12:04:31;;;;;;;11.83;11.23;;;25.20;14.00;;;;;;4938684;29;20466;-77
2023/09/06 12:06:58;;;;;;;12.00;11.00;;;25.40;13.40;;;;;;4943699;29;20916;-76
2023/09/06 12:09:24;;;;;;;12.07;11.47;;;25.40;13.40;;;;;;4940539;29;20654;-76
2023/09/06 12:11:51;;;;;;;11.50;10.80;;;25.40;13.60;;;;;;4941249;29;20431;-77
2023/09/06 12:14:17;;;;;;;12.27;11.67;;;25.40;13.10;;;;;;4939973;29;20454;-76
2023/09/06 12:16:43;;;;;;;12.83;12.13;;;25.40;12.70;;;;;;4938513;29;20420;-75
2023/09/06 12:19:13;;;;;;;11.83;11.23;;;25.40;12.60;;;;;;4932631;29;20440;-76
2023/09/06 12:21:39;;;;;;;12.27;11.47;;;25.60;12.10;;;;;;4933291;29;20246;-77
2023/09/06 12:24:05;;;;;;;12.30;11.40;;;25.90;11.80;;;;;;4932238;29;20746;-76
2023/09/06 12:26:33;;;;;;;11.60;10.80;;;25.90;11.70;;;;;;4936839;29;20184;-75
2023/09/06 12:28:58;;;;;;;11.40;10.80;;;26.10;11.40;;;;;;4921472;29;20278;-77
2023/09/06 12:31:24;;;;;;;11.00;10.30;;;26.10;11.70;;;;;;4929758;29;20480;-77
2023/09/06 12:33:51;;;;;;;10.37;9.63;;;26.00;11.50;;;;;;4939258;29;20208;-77
2023/09/06 12:36:17;;;;;;;10.57;9.97;;;25.90;11.40;;;;;;4941917;29;20187;-76
2023/09/06 12:38:44;;;;;;;11.37;10.57;;;26.00;10.70;;;;;;4942224;29;20427;-76
2023/09/06 12:41:10;;;;;;;11.03;10.33;;;26.10;10.50;;;;;;4941883;29;20443;-77
2023/09/06 12:43:36;;;;;;;10.63;10.03;;;26.20;10.00;;;;;;4942041;29;20484;-77
2023/09/06 12:46:06;;;;;;;11.20;10.60;;;26.30;10.30;;;;;;4943223;29;20420;-77
2023/09/06 12:48:32;;;;;;;11.37;10.40;;;26.40;9.90;;;;;;4959593;29;20195;-74
2023/09/06 12:50:57;;;;;;;10.07;9.47;;;26.40;9.70;;;;;;4944262;29;20498;-74
2023/09/06 12:53:23;;;;;;;10.70;10.10;;;26.50;9.30;;;;;;4944073;29;20200;-75
2023/09/06 12:55:48;;;;;;;10.97;10.27;;;26.50;9.40;;;;;;4942736;29;20184;-76
2023/09/06 12:58:14;;;;;;;10.00;9.33;;;26.40;9.60;;;;;;4943376;29;20176;-75
2023/09/06 13:00:43;;;;;;;9.33;8.83;;;26.40;9.40;;;;;;4944133;29;20188;-75
2023/09/06 13:03:08;;;;;;;9.67;9.00;;;26.60;9.50;;;;;;4947626;29;20176;-76
2023/09/06 13:05:34;;;;;;;8.90;8.40;;;26.80;9.00;;;;;;4941027;29;20450;-76
2023/09/06 13:08:00;;;;;;;10.70;9.87;;;26.80;8.80;;;;;;4937486;29;20192;-75
2023/09/06 13:10:29;;;;;;;11.67;9.60;;;26.80;8.50;;;;;;4933624;29;20223;-76
2023/09/06 13:12:55;;;;;;;10.27;9.60;;;26.60;8.40;;;;;;4940640;29;20487;-75
2023/09/06 13:15:20;;;;;;;9.73;9.10;;;26.60;8.40;;;;;;4941164;29;20542;-76
2023/09/06 13:17:46;;;;;;;9.73;9.03;;;26.70;8.40;;;;;;4940263;29;20176;-75
2023/09/06 13:20:11;;;;;;;13.70;9.27;;;26.80;8.50;;;;;;4936222;29;20537;-75
2023/09/06 13:22:38;;;;;;;9.17;8.57;;;26.70;8.00;;;;;;4940577;29;20263;-75
2023/09/06 13:25:07;;;;;;;8.57;8.10;;;26.80;8.10;;;;;;4940881;29;20210;-75
2023/09/06 13:27:33;;;;;;;10.03;9.43;;;26.90;7.80;;;;;;4942055;29;20912;-76
2023/09/06 13:29:59;;;;;;;10.27;9.53;;;27.00;7.50;;;;;;4941717;29;20467;-75
2023/09/06 13:32:25;;;;;;;10.10;9.50;;;27.00;7.50;;;;;;4941113;29;20432;-75
2023/09/06 13:34:52;;;;;;;9.87;9.30;;;27.00;7.80;;;;;;4942471;29;20240;-76
2023/09/06 13:37:19;;;;;;;10.33;9.73;;;27.10;7.80;;;;;;4941457;29;20180;-76
2023/09/06 13:39:44;;;;;;;9.57;9.07;;;27.00;7.90;;;;;;4940677;29;20428;-75
2023/09/06 13:42:10;;;;;;;8.53;8.13;;;26.90;7.80;;;;;;4936978;29;20431;-76
2023/09/06 13:44:36;;;;;;;9.47;8.53;;;26.90;7.30;;;;;;4936066;29;20214;-75
2023/09/06 13:47:02;;;;;;;9.40;8.70;;;27.10;7.00;;;;;;4936861;29;20419;-75
2023/09/06 13:49:28;;;;;;;8.03;7.63;;;27.10;6.80;;;;;;4936669;29;20235;-76
2023/09/06 13:51:53;;;;;;;8.77;8.07;;;27.10;6.90;;;;;;4950800;29;20176;-75
2023/09/06 13:54:20;;;;;;;8.30;7.80;;;27.10;7.00;;;;;;4935473;29;20200;-76
2023/09/06 13:56:49;;;;;;;12.53;9.20;;;27.20;6.40;;;;;;4935223;29;20186;-75
2023/09/06 13:59:16;;;;;;;9.50;8.80;;;27.10;7.60;;;;;;4935777;29;20447;-75
2023/09/06 14:01:42;;;;;;;9.17;8.57;;;27.00;7.80;;;;;;4935601;29;20426;-75
2023/09/06 14:04:08;;;;;;;8.57;8.10;;;26.90;7.90;;;;;;4935104;29;20440;-75
2023/09/06 14:06:34;;;;;;;9.03;8.53;;;26.90;7.50;;;;;;4917211;29;20425;-76
2023/09/06 14:09:00;;;;;;;8.73;8.23;;;27.00;7.00;;;;;;4935406;29;20203;-75
2023/09/06 14:11:25;;;;;;;8.40;7.90;;;26.90;7.50;;;;;;4932290;29;20254;-75
2023/09/06 14:13:51;;;;;;;9.67;8.80;;;26.90;7.50;;;;;;4933877;29;20939;-75
2023/09/06 14:16:17;;;;;;;9.20;8.60;;;27.00;7.60;;;;;;4933781;29;20190;-77
2023/09/06 14:18:42;;;;;;;8.80;8.30;;;27.20;7.40;;;;;;4936445;29;20687;-77
2023/09/06 14:21:08;;;;;;;9.33;8.37;;;27.00;7.10;;;;;;4935279;29;20671;-77
2023/09/06 14:23:33;;;;;;;7.93;7.47;;;27.00;7.50;;;;;;4934998;29;20200;-77
2023/09/06 14:25:59;;;;;;;8.67;8.17;;;26.90;8.10;;;;;;4945575;29;20180;-77
2023/09/06 14:28:24;;;;;;;8.30;7.80;;;26.80;8.50;;;;;;4945583;29;20190;-77
2023/09/06 14:30:50;;;;;;;8.20;7.70;;;26.80;8.50;;;;;;4935430;29;20215;-78
2023/09/06 14:33:15;;;;;;;9.10;8.40;;;26.70;8.60;;;;;;4931989;29;20235;-77
2023/09/06 14:35:44;;;;;;;8.60;8.10;;;26.70;8.40;;;;;;4934543;29;20470;-77
2023/09/06 14:38:10;;;;;;;8.93;8.23;;;26.70;9.10;;;;;;4934393;29;20184;-77
2023/09/06 14:40:43;;;;;;;8.80;8.20;;;26.70;8.40;;;;;;4932457;29;20439;-77
2023/09/06 14:43:09;;;;;;;8.50;7.77;;;26.70;8.40;;;;;;4935878;29;20438;-77
2023/09/06 14:45:37;;;;;;;8.10;7.60;;;26.70;9.00;;;;;;4937010;29;20438;-77
2023/09/06 14:48:03;;;;;;;7.83;7.23;;;26.60;9.00;;;;;;4938139;29;20423;-77
2023/09/06 14:50:31;;;;;;;7.73;7.23;;;26.60;8.40;;;;;;4937830;29;20554;-78
2023/09/06 14:52:57;;;;;;;7.60;7.10;;;26.80;8.50;;;;;;4937224;29;20450;-77
2023/09/06 14:55:22;;;;;;;7.70;7.17;;;26.90;8.50;;;;;;4937062;29;20431;-77
2023/09/06 14:57:48;;;;;;;7.43;7.03;;;26.90;8.50;;;;;;4937648;29;20494;-77
2023/09/06 15:00:14;;;;;;;8.20;7.50;;;26.90;7.90;;;;;;4936578;29;20202;-76
2023/09/06 15:02:40;;;;;;;8.00;7.50;;;27.00;8.00;;;;;;4938436;29;20268;-77
2023/09/06 15:05:07;;;;;;;7.40;7.00;;;27.00;8.30;;;;;;4935861;29;21269;-76
2023/09/06 15:07:33;;;;;;;7.50;7.10;;;27.00;8.60;;;;;;4937242;29;20250;-76
2023/09/06 15:09:58;;;;;;;7.47;7.07;;;27.00;8.60;;;;;;4934921;29;20475;-78
2023/09/06 15:12:24;;;;;;;7.50;7.00;;;26.90;8.60;;;;;;4936569;29;20682;-77
2023/09/06 15:14:49;;;;;;;8.23;7.73;;;26.80;9.00;;;;;;4937832;29;20252;-76
2023/09/06 15:17:15;;;;;;;7.30;6.90;;;26.80;9.00;;;;;;4937744;29;20260;-77
2023/09/06 15:19:41;;;;;;;7.93;7.53;;;26.90;8.70;;;;;;4939487;29;20207;-78
2023/09/06 15:22:06;;;;;;;8.27;7.77;;;26.80;9.30;;;;;;4937259;29;20483;-77
2023/09/06 15:24:32;;;;;;;8.20;7.60;;;26.70;8.50;;;;;;4937979;29;20726;-78
2023/09/06 15:26:58;;;;;;;6.90;6.50;;;26.70;8.70;;;;;;4933348;29;20193;-78
2023/09/06 15:29:24;;;;;;;7.90;7.30;;;26.60;9.40;;;;;;4929995;29;20561;-78
2023/09/06 15:31:49;;;;;;;7.57;7.17;;;26.60;9.30;;;;;;4936997;29;20592;-77
2023/09/06 15:34:17;;;;;;;7.27;6.80;;;26.60;9.00;;;;;;4928372;29;20209;-76
2023/09/06 15:36:43;;;;;;;8.10;7.53;;;26.70;8.80;;;;;;4926307;29;20180;-75
2023/09/06 15:39:09;;;;;;;7.80;7.40;;;26.60;9.00;;;;;;4924481;29;20632;-77
2023/09/06 15:41:34;;;;;;;7.47;6.77;;;26.60;8.40;;;;;;4927242;29;20200;-77
2023/09/06 15:44:04;;;;;;;8.53;7.50;;;26.70;8.40;;;;;;4924987;29;20328;-76
2023/09/06 15:46:30;;;;;;;7.70;7.20;;;26.70;8.40;;;;;;4925497;29;20188;-76
2023/09/06 15:48:56;;;;;;;7.87;7.37;;;26.60;8.40;;;;;;4926985;29;20452;-76
2023/09/06 15:51:23;;;;;;;12.37;7.00;;;26.60;9.00;;;;;;4928534;29;20444;-77
2023/09/06 15:53:49;;;;;;;7.17;6.80;;;26.50;9.20;;;;;;4928765;29;20192;-77
2023/09/06 15:56:15;;;;;;;7.43;6.93;;;26.40;9.10;;;;;;4929094;29;20691;-76
2023/09/06 15:58:40;;;;;;;7.93;7.53;;;26.40;9.10;;;;;;4934793;29;20422;-76
2023/09/06 16:01:06;;;;;;;7.37;6.90;;;26.50;8.70;;;;;;4935873;29;20661;-75
2023/09/06 16:03:32;;;;;;;7.43;7.07;;;26.50;8.90;;;;;;4936645;29;20227;-77
2023/09/06 16:05:57;;;;;;;9.83;9.13;;;26.50;8.70;;;;;;4936492;29;20180;-77
2023/09/06 16:08:23;;;;;;;6.90;6.60;;;26.50;8.60;;;;;;4936240;29;20434;-79
2023/09/06 16:10:52;;;;;;;6.77;6.37;;;26.50;8.50;;;;;;4937594;29;20207;-77
2023/09/06 16:13:17;;;;;;;7.10;6.70;;;26.50;8.30;;;;;;4937458;29;20196;-76
2023/09/06 16:15:43;;;;;;;7.27;6.87;;;26.50;8.40;;;;;;4936760;29;20792;-77
2023/09/06 16:18:08;;;;;;;7.17;6.77;;;26.40;8.30;;;;;;4941110;29;20173;-78
2023/09/06 16:20:35;;;;;;;7.03;6.47;;;26.50;8.90;;;;;;4938774;29;20175;-78
2023/09/06 16:23:00;;;;;;;6.40;6.00;;;26.40;9.00;;;;;;4943038;29;20195;-77
2023/09/06 16:25:26;;;;;;;6.77;6.40;;;26.40;8.50;;;;;;4945186;29;20696;-78
2023/09/06 16:27:51;;;;;;;8.20;7.50;;;26.40;8.50;;;;;;4954430;29;20242;-76
2023/09/06 16:30:17;;;;;;;8.00;7.50;;;26.40;8.60;;;;;;4928905;29;20579;-78
2023/09/06 16:32:43;;;;;;;7.50;7.10;;;26.40;9.00;;;;;;4925253;29;20180;-76
2023/09/06 16:35:09;;;;;;;7.47;7.07;;;26.30;9.40;;;;;;4921192;29;20443;-77
2023/09/06 16:37:38;;;;;;;7.30;6.90;;;26.20;9.60;;;;;;4935866;29;20604;-76
2023/09/06 16:40:04;;;;;;;6.57;6.00;;;26.10;9.70;;;;;;4918891;29;20596;-77
2023/09/06 16:42:30;;;;;;;7.10;6.70;;;26.00;9.50;;;;;;4934727;29;20427;-76
2023/09/06 16:44:56;;;;;;;7.20;6.83;;;26.00;9.30;;;;;;4934657;29;20447;-77
2023/09/06 16:47:23;;;;;;;6.97;6.67;;;26.00;9.30;;;;;;4935528;29;20483;-76
2023/09/06 16:49:51;;;;;;;7.47;7.07;;;26.00;9.10;;;;;;4935155;29;20251;-77
2023/09/06 16:52:16;;;;;;;7.10;6.70;;;25.90;9.30;;;;;;4934008;29;20443;-76
2023/09/06 16:54:42;;;;;;;6.70;6.20;;;26.00;9.20;;;;;;4934738;29;20901;-76
2023/09/06 16:57:07;;;;;;;7.03;6.63;;;25.90;9.70;;;;;;4935066;29;20227;-77
2023/09/06 16:59:33;;;;;;;8.50;7.80;;;25.80;9.60;;;;;;4935030;29;20188;-76
2023/09/06 17:01:58;;;;;;;6.60;6.20;;;25.80;10.00;;;;;;4936705;29;20192;-77
2023/09/06 17:04:24;;;;;;;7.20;6.80;;;25.70;9.50;;;;;;4934222;29;20211;-77
2023/09/06 17:06:49;;;;;;;7.10;6.73;;;25.70;10.20;;;;;;4935020;29;20710;-76
2023/09/06 17:09:15;;;;;;;7.13;6.73;;;25.70;9.70;;;;;;4934590;29;20711;-77
2023/09/06 17:11:43;;;;;;;6.53;6.20;;;25.70;10.00;;;;;;4935368;29;20574;-76
2023/09/06 17:14:09;;;;;;;7.77;7.17;;;25.60;10.30;;;;;;4929107;29;20204;-76
2023/09/06 17:16:35;;;;;;;7.57;6.97;;;25.70;9.90;;;;;;4933940;29;20912;-76
2023/09/06 17:19:01;;;;;;;6.67;6.37;;;25.60;9.80;;;;;;4932546;29;20443;-76
2023/09/06 17:21:26;;;;;;;6.93;6.60;;;25.60;10.20;;;;;;4934250;29;20188;-76
2023/09/06 17:23:53;;;;;;;7.43;7.03;;;25.50;10.20;;;;;;4931026;29;20453;-76
2023/09/06 17:26:21;;;;;;;6.47;6.17;;;25.50;10.40;;;;;;4933525;29;20286;-75
2023/09/06 17:28:47;;;;;;;6.83;6.43;;;25.40;10.30;;;;;;4934282;29;20428;-75
2023/09/06 17:31:13;;;;;;;7.30;6.80;;;25.50;11.00;;;;;;4933113;29;20416;-76
2023/09/06 17:33:38;;;;;;;6.73;6.33;;;25.50;10.70;;;;;;4935717;29;20195;-76
2023/09/06 17:36:07;;;;;;;7.73;7.13;;;25.30;11.10;;;;;;4934062;29;20180;-77
2023/09/06 17:38:34;;;;;;;7.70;6.97;;;25.30;11.20;;;;;;4920340;29;20267;-76
2023/09/06 17:41:00;;;;;;;6.80;6.40;;;25.20;11.30;;;;;;4922788;29;20503;-75
2023/09/06 17:43:28;;;;;;;6.93;6.53;;;25.10;11.50;;;;;;4933674;29;20866;-75
2023/09/06 17:45:55;;;;;;;10.37;6.60;;;25.10;11.70;;;;;;4931938;29;20168;-76
2023/09/06 17:48:22;;;;;;;7.13;6.73;;;25.10;11.90;;;;;;4934040;29;20780;-76
2023/09/06 17:50:50;;;;;;;6.93;6.53;;;25.10;11.70;;;;;;4935169;29;20829;-75
2023/09/06 17:53:20;;;;;;;7.40;6.80;;;25.00;11.60;;;;;;4939303;29;20437;-77
2023/09/06 17:55:49;;;;;;;6.87;6.37;;;25.00;11.80;;;;;;4935864;29;20423;-76
2023/09/06 17:58:16;;;;;;;7.70;6.90;;;25.00;12.00;;;;;;4935838;29;20837;-76
2023/09/06 18:00:48;;;;;;;7.17;6.77;;;24.90;12.00;;;;;;4934711;29;20420;-76
2023/09/06 18:03:16;;;;;;;6.53;6.13;;;24.90;12.20;;;;;;4935537;29;20440;-76
2023/09/06 18:05:44;;;;;;;7.13;6.50;;;24.80;12.50;;;;;;4935756;29;20430;-76
2023/09/06 18:08:10;;;;;;;6.87;6.47;;;24.70;12.50;;;;;;4935045;29;20424;-76
2023/09/06 18:10:36;;;;;;;8.27;7.80;;;24.70;12.80;;;;;;4933988;29;20957;-76
2023/09/06 18:13:05;;;;;;;7.63;7.20;;;24.60;12.90;;;;;;4935728;29;20412;-76
2023/09/06 18:15:31;;;;;;;7.77;7.37;;;24.60;13.20;;;;;;4935412;29;20451;-75
2023/09/06 18:17:59;;;;;;;7.80;7.40;;;24.60;13.20;;;;;;4938384;29;20412;-76
2023/09/06 18:20:25;;;;;;;7.37;6.97;;;24.50;13.30;;;;;;4938996;29;20736;-76
2023/09/06 18:22:51;;;;;;;8.00;7.50;;;24.40;13.50;;;;;;4938836;29;20423;-76
2023/09/06 18:25:16;;;;;;;8.00;7.60;;;24.30;13.70;;;;;;4938649;29;20210;-76
2023/09/06 18:27:43;;;;;;;7.60;7.10;;;24.30;13.80;;;;;;4938664;29;20191;-76
2023/09/06 18:30:15;;;;;;;7.67;6.90;;;24.20;13.70;;;;;;4938645;29;20233;-76
2023/09/06 18:32:44;;;;;;;7.80;7.40;;;24.20;13.80;;;;;;4938599;29;20412;-76
2023/09/06 18:35:14;;;;;;;7.30;6.90;;;24.10;14.00;;;;;;4938381;29;20460;-76
2023/09/06 18:37:40;;;;;;;7.57;7.17;;;24.10;14.10;;;;;;4938362;29;20416;-76
2023/09/06 18:40:14;;;;;;;7.63;7.13;;;24.10;13.90;;;;;;4937936;29;21075;-76
2023/09/06 18:42:46;;;;;;;8.27;7.67;;;24.00;14.00;;;;;;4938281;29;20255;-76
2023/09/06 18:45:13;;;;;;;7.17;6.77;;;24.00;14.20;;;;;;4938220;29;20823;-76
2023/09/06 18:47:46;;;;;;;8.73;8.20;;;23.90;14.50;;;;;;4938628;29;20415;-76
2023/09/06 18:50:16;;;;;;;7.50;6.90;;;23.90;15.00;;;;;;4937869;29;20530;-76
2023/09/06 18:52:43;;;;;;;7.57;6.90;;;23.90;15.20;;;;;;4938093;29;20594;-76
2023/09/06 18:55:10;;;;;;;7.30;6.90;;;23.80;15.50;;;;;;4938132;29;20458;-76
2023/09/06 18:57:40;;;;;;;6.70;6.30;;;23.80;15.70;;;;;;4937172;29;20424;-76
2023/09/06 19:00:10;;;;;;;8.00;7.40;;;23.70;15.60;;;;;;4952334;29;20432;-76
2023/09/06 19:02:40;;;;;;;7.60;7.00;;;23.70;15.80;;;;;;4938134;29;20442;-76
2023/09/06 19:05:07;;;;;;;8.50;7.90;;;23.60;15.80;;;;;;4938221;29;20467;-76
2023/09/06 19:07:38;;;;;;;7.40;6.90;;;23.60;15.90;;;;;;4937855;29;20923;-76
2023/09/06 19:10:05;;;;;;;7.20;6.70;;;23.60;15.90;;;;;;4937806;29;20459;-76
2023/09/06 19:12:31;;;;;;;7.50;6.90;;;23.50;16.10;;;;;;4936285;29;20444;-76
2023/09/06 19:14:57;;;;;;;8.00;7.47;;;23.50;16.30;;;;;;4938265;29;20424;-76
2023/09/06 19:17:22;;;;;;;6.20;5.80;;;23.50;16.40;;;;;;4940895;29;20774;-75
2023/09/06 19:19:48;;;;;;;6.80;6.30;;;23.40;16.50;;;;;;4937351;29;20191;-76
2023/09/06 19:22:15;;;;;;;7.23;6.70;;;23.40;16.60;;;;;;4937109;29;20235;-76
2023/09/06 19:24:42;;;;;;;6.30;5.90;;;23.30;16.80;;;;;;5110907;23;20495;-79
2023/09/06 19:27:08;;;;;;;7.03;6.50;;;23.30;16.90;;;;;;4940584;28;20778;-78
2023/09/06 19:29:33;;;;;;;8.20;7.60;;;23.30;17.20;;;;;;4937337;29;20785;-80
2023/09/06 19:31:59;;;;;;;8.50;7.90;;;23.20;17.60;;;;;;4933649;29;20176;-77
2023/09/06 19:34:28;;;;;;;8.67;8.17;;;23.20;17.60;;;;;;4934790;29;20204;-79
2023/09/06 19:36:56;;;;;;;7.70;7.10;;;23.10;17.60;;;;;;4940152;29;20291;-78
2023/09/06 19:39:21;;;;;;;8.53;7.83;;;23.10;17.70;;;;;;4947591;29;20474;-80
2023/09/06 19:41:47;;;;;;;8.70;7.97;;;23.10;17.90;;;;;;4940122;29;20433;-78
2023/09/06 19:44:12;;;;;;;8.10;7.53;;;23.10;18.00;;;;;;4939525;29;20218;-80
2023/09/06 19:46:38;;;;;;;10.10;9.20;;;23.00;18.00;;;;;;4941513;29;20203;-80
2023/09/06 19:49:04;;;;;;;9.23;8.53;;;23.00;18.10;;;;;;4940948;29;20198;-79
2023/09/06 19:51:30;;;;;;;8.70;8.20;;;23.00;18.10;;;;;;4941060;29;20267;-79
2023/09/06 19:53:56;;;;;;;9.73;8.73;;;22.90;18.30;;;;;;4955867;29;20208;-79
2023/09/06 19:56:23;;;;;;;9.90;9.10;;;22.90;18.10;;;;;;4945443;29;20920;-78
2023/09/06 19:58:51;;;;;;;10.20;9.40;;;22.90;18.20;;;;;;4960551;29;20447;-78
2023/09/06 20:01:16;;;;;;;15.00;13.87;;;22.90;18.40;;;;;;4940328;29;20435;-78
2023/09/06 20:03:44;;;;;;;9.50;8.90;;;22.80;18.30;;;;;;4952902;29;20447;-77
2023/09/06 20:06:09;;;;;;;8.90;8.30;;;22.80;18.50;;;;;;4936484;29;20207;-76
2023/09/06 20:08:35;;;;;;;8.70;8.10;;;22.80;18.70;;;;;;4936533;29;20440;-78
2023/09/06 20:11:04;;;;;;;9.20;8.40;;;22.70;18.60;;;;;;4930117;29;20673;-77
2023/09/06 20:13:33;;;;;;;9.30;8.70;;;22.80;18.80;;;;;;4931855;29;20734;-77
2023/09/06 20:16:01;;;;;;;9.93;9.23;;;22.70;18.90;;;;;;4934105;29;20774;-77
2023/09/06 20:18:30;;;;;;;9.93;9.23;;;22.70;19.20;;;;;;4934407;29;20424;-77
2023/09/06 20:21:03;;;;;;;9.30;8.70;;;22.60;19.20;;;;;;4934538;29;20460;-79
2023/09/06 20:23:30;;;;;;;10.57;9.77;;;22.60;19.30;;;;;;4933059;29;20968;-76
2023/09/06 20:25:56;;;;;;;9.40;8.70;;;22.60;19.50;;;;;;4935500;29;20952;-78
2023/09/06 20:28:21;;;;;;;8.77;8.27;;;22.60;19.40;;;;;;4936894;29;20439;-79
2023/09/06 20:30:47;;;;;;;9.77;8.80;;;22.50;19.40;;;;;;4937062;29;20196;-78